sensor_id;sensor_type;location;lat;lon;timestamp;P1;durP1;ratioP1;P2;durP2;ratioP2
59907;SDS011;61804;54.926;73.496;2023-03-31T00:01:37;9.90;;;3.97;;
59907;SDS011;61804;54.926;73.496;2023-03-31T00:04:08;11.90;;;3.90;;
59907;SDS011;61804;54.926;73.496;2023-03-31T00:06:48;11.43;;;3.25;;
59907;SDS011;61804;54.926;73.496;2023-03-31T00:09:16;14.25;;;4.45;;
59907;SDS011;61804;54.926;73.496;2023-03-31T00:11:44;8.50;;;4.43;;
59907;SDS011;61804;54.926;73.496;2023-03-31T00:14:12;22.42;;;5.75;;
59907;SDS011;61804;54.926;73.496;2023-03-31T00:17:03;6.97;;;3.45;;
59907;SDS011;61804;54.926;73.496;2023-03-31T00:19:30;25.55;;;7.90;;
59907;SDS011;61804;54.926;73.496;2023-03-31T00:21:58;14.80;;;5.70;;
59907;SDS011;61804;54.926;73.496;2023-03-31T00:24:28;22.23;;;5.88;;
59907;SDS011;61804;54.926;73.496;2023-03-31T00:27:08;18.75;;;5.30;;
59907;SDS011;61804;54.926;73.496;2023-03-31T00:29:42;14.38;;;6.43;;
59907;SDS011;61804;54.926;73.496;2023-03-31T00:32:10;10.45;;;5.28;;
59907;SDS011;61804;54.926;73.496;2023-03-31T00:34:40;17.92;;;6.25;;
59907;SDS011;61804;54.926;73.496;2023-03-31T00:37:09;21.85;;;7.40;;
59907;SDS011;61804;54.926;73.496;2023-03-31T00:39:41;31.67;;;6.68;;
59907;SDS011;61804;54.926;73.496;2023-03-31T00:42:09;5.72;;;3.05;;
59907;SDS011;61804;54.926;73.496;2023-03-31T00:47:34;4.90;;;3.67;;
59907;SDS011;61804;54.926;73.496;2023-03-31T00:50:02;9.13;;;4.00;;
59907;SDS011;61804;54.926;73.496;2023-03-31T00:52:31;30.52;;;6.35;;
59907;SDS011;61804;54.926;73.496;2023-03-31T00:55:04;51.97;;;10.55;;
59907;SDS011;61804;54.926;73.496;2023-03-31T00:57:39;26.88;;;7.32;;
59907;SDS011;61804;54.926;73.496;2023-03-31T01:00:08;48.08;;;9.15;;
59907;SDS011;61804;54.926;73.496;2023-03-31T01:02:47;15.95;;;5.47;;
59907;SDS011;61804;54.926;73.496;2023-03-31T01:05:26;3.25;;;2.53;;
59907;SDS011;61804;54.926;73.496;2023-03-31T01:07:55;6.97;;;2.72;;
59907;SDS011;61804;54.926;73.496;2023-03-31T01:10:23;9.95;;;5.93;;
59907;SDS011;61804;54.926;73.496;2023-03-31T01:12:52;10.35;;;4.82;;
59907;SDS011;61804;54.926;73.496;2023-03-31T01:15:22;30.17;;;7.88;;
59907;SDS011;61804;54.926;73.496;2023-03-31T01:17:50;19.48;;;5.15;;
59907;SDS011;61804;54.926;73.496;2023-03-31T01:44:44;8.60;;;5.47;;
59907;SDS011;61804;54.926;73.496;2023-03-31T01:47:26;18.38;;;6.90;;
59907;SDS011;61804;54.926;73.496;2023-03-31T01:50:03;37.08;;;7.38;;
59907;SDS011;61804;54.926;73.496;2023-03-31T01:53:17;13.65;;;6.22;;
59907;SDS011;61804;54.926;73.496;2023-03-31T01:55:26;22.00;;;6.20;;
59907;SDS011;61804;54.926;73.496;2023-03-31T01:58:01;11.10;;;3.63;;
59907;SDS011;61804;54.926;73.496;2023-03-31T02:00:33;15.77;;;4.85;;
59907;SDS011;61804;54.926;73.496;2023-03-31T02:03:16;5.45;;;2.30;;
59907;SDS011;61804;54.926;73.496;2023-03-31T02:05:57;5.32;;;3.85;;
59907;SDS011;61804;54.926;73.496;2023-03-31T02:08:28;6.43;;;3.58;;
59907;SDS011;61804;54.926;73.496;2023-03-31T02:10:59;6.03;;;3.97;;
59907;SDS011;61804;54.926;73.496;2023-03-31T02:13:29;20.48;;;5.90;;
59907;SDS011;61804;54.926;73.496;2023-03-31T02:15:58;18.50;;;4.47;;
59907;SDS011;61804;54.926;73.496;2023-03-31T02:18:29;7.60;;;4.78;;
59907;SDS011;61804;54.926;73.496;2023-03-31T02:21:04;16.30;;;6.00;;
59907;SDS011;61804;54.926;73.496;2023-03-31T02:23:33;9.80;;;6.55;;
59907;SDS011;61804;54.926;73.496;2023-03-31T02:26:07;9.20;;;5.60;;
59907;SDS011;61804;54.926;73.496;2023-03-31T02:28:46;10.82;;;7.15;;
59907;SDS011;61804;54.926;73.496;2023-03-31T02:31:20;24.95;;;8.57;;
59907;SDS011;61804;54.926;73.496;2023-03-31T02:33:50;11.40;;;6.32;;
59907;SDS011;61804;54.926;73.496;2023-03-31T02:36:18;22.38;;;7.95;;
59907;SDS011;61804;54.926;73.496;2023-03-31T02:39:04;8.32;;;5.72;;
59907;SDS011;61804;54.926;73.496;2023-03-31T02:41:32;11.77;;;6.28;;
59907;SDS011;61804;54.926;73.496;2023-03-31T02:44:01;12.93;;;7.13;;
59907;SDS011;61804;54.926;73.496;2023-03-31T02:46:28;10.55;;;4.93;;
59907;SDS011;61804;54.926;73.496;2023-03-31T02:49:00;22.88;;;7.20;;
59907;SDS011;61804;54.926;73.496;2023-03-31T03:02:28;23.25;;;6.00;;
59907;SDS011;61804;54.926;73.496;2023-03-31T03:07:38;28.63;;;4.80;;
59907;SDS011;61804;54.926;73.496;2023-03-31T03:10:13;12.77;;;3.35;;
59907;SDS011;61804;54.926;73.496;2023-03-31T03:12:53;4.10;;;2.03;;
59907;SDS011;61804;54.926;73.496;2023-03-31T03:18:13;8.45;;;3.10;;
59907;SDS011;61804;54.926;73.496;2023-03-31T03:20:42;35.17;;;5.93;;
59907;SDS011;61804;54.926;73.496;2023-03-31T03:23:14;17.73;;;3.67;;
59907;SDS011;61804;54.926;73.496;2023-03-31T03:25:42;2.53;;;2.33;;
59907;SDS011;61804;54.926;73.496;2023-03-31T03:28:10;12.02;;;3.67;;
59907;SDS011;61804;54.926;73.496;2023-03-31T03:30:37;9.98;;;4.22;;
59907;SDS011;61804;54.926;73.496;2023-03-31T03:33:06;21.42;;;2.38;;
59907;SDS011;61804;54.926;73.496;2023-03-31T03:35:38;3.63;;;1.48;;
59907;SDS011;61804;54.926;73.496;2023-03-31T03:38:08;56.63;;;9.05;;
59907;SDS011;61804;54.926;73.496;2023-03-31T03:40:36;22.33;;;5.55;;
59907;SDS011;61804;54.926;73.496;2023-03-31T03:43:15;9.50;;;2.13;;
59907;SDS011;61804;54.926;73.496;2023-03-31T03:45:46;24.23;;;5.63;;
59907;SDS011;61804;54.926;73.496;2023-03-31T03:48:17;5.97;;;2.28;;
59907;SDS011;61804;54.926;73.496;2023-03-31T03:50:49;6.80;;;3.85;;
59907;SDS011;61804;54.926;73.496;2023-03-31T03:53:19;12.38;;;4.90;;
59907;SDS011;61804;54.926;73.496;2023-03-31T03:55:51;9.18;;;3.13;;
59907;SDS011;61804;54.926;73.496;2023-03-31T03:58:20;0.93;;;0.90;;
59907;SDS011;61804;54.926;73.496;2023-03-31T04:00:47;2.25;;;1.75;;
59907;SDS011;61804;54.926;73.496;2023-03-31T04:03:17;11.77;;;6.05;;
59907;SDS011;61804;54.926;73.496;2023-03-31T04:05:45;14.73;;;6.93;;
59907;SDS011;61804;54.926;73.496;2023-03-31T04:08:21;7.07;;;3.17;;
59907;SDS011;61804;54.926;73.496;2023-03-31T04:10:49;25.73;;;5.43;;
59907;SDS011;61804;54.926;73.496;2023-03-31T04:13:27;11.75;;;2.83;;
59907;SDS011;61804;54.926;73.496;2023-03-31T04:15:54;6.05;;;1.42;;
59907;SDS011;61804;54.926;73.496;2023-03-31T04:18:22;2.78;;;1.65;;
59907;SDS011;61804;54.926;73.496;2023-03-31T04:20:50;1.17;;;1.17;;
59907;SDS011;61804;54.926;73.496;2023-03-31T04:23:33;2.90;;;2.05;;
59907;SDS011;61804;54.926;73.496;2023-03-31T04:26:01;5.35;;;2.05;;
59907;SDS011;61804;54.926;73.496;2023-03-31T04:28:29;12.88;;;9.18;;
59907;SDS011;61804;54.926;73.496;2023-03-31T04:31:03;2.03;;;1.27;;
59907;SDS011;61804;54.926;73.496;2023-03-31T04:33:32;2.85;;;1.70;;
59907;SDS011;61804;54.926;73.496;2023-03-31T04:36:00;5.47;;;4.00;;
59907;SDS011;61804;54.926;73.496;2023-03-31T04:38:33;5.72;;;2.47;;
59907;SDS011;61804;54.926;73.496;2023-03-31T04:41:00;6.47;;;3.58;;
59907;SDS011;61804;54.926;73.496;2023-03-31T04:43:28;7.05;;;2.58;;
59907;SDS011;61804;54.926;73.496;2023-03-31T04:45:56;2.70;;;2.05;;
59907;SDS011;61804;54.926;73.496;2023-03-31T04:48:23;4.68;;;3.15;;
59907;SDS011;61804;54.926;73.496;2023-03-31T04:50:51;3.67;;;2.67;;
59907;SDS011;61804;54.926;73.496;2023-03-31T04:53:18;2.95;;;2.20;;
59907;SDS011;61804;54.926;73.496;2023-03-31T04:55:47;3.30;;;2.25;;
59907;SDS011;61804;54.926;73.496;2023-03-31T04:58:15;12.35;;;2.40;;
59907;SDS011;61804;54.926;73.496;2023-03-31T05:00:43;2.65;;;1.45;;
59907;SDS011;61804;54.926;73.496;2023-03-31T05:03:10;1.83;;;1.40;;
59907;SDS011;61804;54.926;73.496;2023-03-31T05:05:38;19.90;;;4.22;;
59907;SDS011;61804;54.926;73.496;2023-03-31T05:08:05;47.35;;;12.48;;
59907;SDS011;61804;54.926;73.496;2023-03-31T05:10:33;6.50;;;2.88;;
59907;SDS011;61804;54.926;73.496;2023-03-31T05:13:25;1.85;;;1.45;;
59907;SDS011;61804;54.926;73.496;2023-03-31T05:15:52;16.13;;;2.60;;
59907;SDS011;61804;54.926;73.496;2023-03-31T05:18:19;19.90;;;3.40;;
59907;SDS011;61804;54.926;73.496;2023-03-31T05:20:50;9.98;;;2.47;;
59907;SDS011;61804;54.926;73.496;2023-03-31T05:23:17;3.05;;;1.75;;
59907;SDS011;61804;54.926;73.496;2023-03-31T05:25:46;9.88;;;2.10;;
59907;SDS011;61804;54.926;73.496;2023-03-31T05:28:13;12.57;;;3.30;;
59907;SDS011;61804;54.926;73.496;2023-03-31T05:30:40;5.57;;;2.13;;
59907;SDS011;61804;54.926;73.496;2023-03-31T05:33:08;34.58;;;4.38;;
59907;SDS011;61804;54.926;73.496;2023-03-31T05:35:36;6.03;;;1.05;;
59907;SDS011;61804;54.926;73.496;2023-03-31T05:38:03;32.22;;;6.45;;
59907;SDS011;61804;54.926;73.496;2023-03-31T05:40:31;7.97;;;1.40;;
59907;SDS011;61804;54.926;73.496;2023-03-31T05:42:59;3.63;;;0.85;;
59907;SDS011;61804;54.926;73.496;2023-03-31T05:45:37;2.92;;;1.85;;
59907;SDS011;61804;54.926;73.496;2023-03-31T05:48:04;28.00;;;3.15;;
59907;SDS011;61804;54.926;73.496;2023-03-31T05:50:34;10.20;;;3.30;;
59907;SDS011;61804;54.926;73.496;2023-03-31T05:53:02;18.35;;;3.03;;
59907;SDS011;61804;54.926;73.496;2023-03-31T05:55:29;25.92;;;3.28;;
59907;SDS011;61804;54.926;73.496;2023-03-31T05:57:57;68.07;;;12.60;;
59907;SDS011;61804;54.926;73.496;2023-03-31T06:00:25;25.90;;;4.30;;
59907;SDS011;61804;54.926;73.496;2023-03-31T06:02:53;2.95;;;0.98;;
59907;SDS011;61804;54.926;73.496;2023-03-31T06:05:22;2.95;;;1.40;;
59907;SDS011;61804;54.926;73.496;2023-03-31T06:07:53;2.80;;;1.58;;
59907;SDS011;61804;54.926;73.496;2023-03-31T06:10:20;6.30;;;3.00;;
59907;SDS011;61804;54.926;73.496;2023-03-31T06:12:52;7.65;;;1.60;;
59907;SDS011;61804;54.926;73.496;2023-03-31T06:15:24;5.68;;;2.78;;
59907;SDS011;61804;54.926;73.496;2023-03-31T06:17:51;2.42;;;2.22;;
59907;SDS011;61804;54.926;73.496;2023-03-31T06:20:24;3.85;;;1.08;;
59907;SDS011;61804;54.926;73.496;2023-03-31T06:23:02;6.13;;;2.55;;
59907;SDS011;61804;54.926;73.496;2023-03-31T06:25:31;9.63;;;1.92;;
59907;SDS011;61804;54.926;73.496;2023-03-31T06:27:58;2.55;;;1.30;;
59907;SDS011;61804;54.926;73.496;2023-03-31T06:30:32;6.65;;;2.10;;
59907;SDS011;61804;54.926;73.496;2023-03-31T06:32:59;7.72;;;1.17;;
59907;SDS011;61804;54.926;73.496;2023-03-31T06:35:27;1.10;;;1.00;;
59907;SDS011;61804;54.926;73.496;2023-03-31T06:37:54;16.15;;;2.30;;
59907;SDS011;61804;54.926;73.496;2023-03-31T06:40:22;20.50;;;7.18;;
59907;SDS011;61804;54.926;73.496;2023-03-31T06:42:49;11.95;;;2.58;;
59907;SDS011;61804;54.926;73.496;2023-03-31T06:45:27;4.00;;;2.05;;
59907;SDS011;61804;54.926;73.496;2023-03-31T06:48:04;2.80;;;1.35;;
59907;SDS011;61804;54.926;73.496;2023-03-31T06:50:32;23.38;;;3.38;;
59907;SDS011;61804;54.926;73.496;2023-03-31T06:53:01;56.53;;;10.05;;
59907;SDS011;61804;54.926;73.496;2023-03-31T06:55:28;66.30;;;11.63;;
59907;SDS011;61804;54.926;73.496;2023-03-31T06:57:56;7.13;;;3.45;;
59907;SDS011;61804;54.926;73.496;2023-03-31T07:00:23;13.50;;;4.18;;
59907;SDS011;61804;54.926;73.496;2023-03-31T07:02:53;23.55;;;4.30;;
59907;SDS011;61804;54.926;73.496;2023-03-31T07:05:21;11.02;;;2.45;;
59907;SDS011;61804;54.926;73.496;2023-03-31T07:07:55;26.52;;;7.18;;
59907;SDS011;61804;54.926;73.496;2023-03-31T07:10:25;37.53;;;4.38;;
59907;SDS011;61804;54.926;73.496;2023-03-31T07:12:53;2.30;;;0.80;;
59907;SDS011;61804;54.926;73.496;2023-03-31T07:15:20;7.30;;;2.15;;
59907;SDS011;61804;54.926;73.496;2023-03-31T07:17:47;24.35;;;3.70;;
59907;SDS011;61804;54.926;73.496;2023-03-31T07:20:17;2.17;;;0.95;;
59907;SDS011;61804;54.926;73.496;2023-03-31T07:22:45;5.55;;;2.17;;
59907;SDS011;61804;54.926;73.496;2023-03-31T07:25:14;11.95;;;2.10;;
59907;SDS011;61804;54.926;73.496;2023-03-31T07:27:41;3.35;;;2.20;;
59907;SDS011;61804;54.926;73.496;2023-03-31T07:30:14;11.68;;;4.63;;
59907;SDS011;61804;54.926;73.496;2023-03-31T07:32:44;89.60;;;17.88;;
59907;SDS011;61804;54.926;73.496;2023-03-31T07:35:12;25.52;;;4.15;;
59907;SDS011;61804;54.926;73.496;2023-03-31T07:37:41;6.30;;;3.75;;
59907;SDS011;61804;54.926;73.496;2023-03-31T07:40:10;23.08;;;4.65;;
59907;SDS011;61804;54.926;73.496;2023-03-31T07:42:38;14.75;;;5.20;;
59907;SDS011;61804;54.926;73.496;2023-03-31T07:45:17;7.68;;;4.28;;
59907;SDS011;61804;54.926;73.496;2023-03-31T07:47:44;32.08;;;5.40;;
59907;SDS011;61804;54.926;73.496;2023-03-31T07:50:15;36.05;;;7.65;;
59907;SDS011;61804;54.926;73.496;2023-03-31T07:52:42;17.23;;;4.00;;
59907;SDS011;61804;54.926;73.496;2023-03-31T07:55:10;3.53;;;2.08;;
59907;SDS011;61804;54.926;73.496;2023-03-31T07:57:38;5.13;;;3.38;;
59907;SDS011;61804;54.926;73.496;2023-03-31T08:00:07;2.78;;;1.52;;
59907;SDS011;61804;54.926;73.496;2023-03-31T08:02:50;22.20;;;7.40;;
59907;SDS011;61804;54.926;73.496;2023-03-31T08:05:18;13.63;;;6.28;;
59907;SDS011;61804;54.926;73.496;2023-03-31T08:07:48;2.55;;;1.42;;
59907;SDS011;61804;54.926;73.496;2023-03-31T08:10:21;1.77;;;1.67;;
59907;SDS011;61804;54.926;73.496;2023-03-31T08:12:50;1.98;;;1.63;;
59907;SDS011;61804;54.926;73.496;2023-03-31T08:15:18;2.72;;;1.63;;
59907;SDS011;61804;54.926;73.496;2023-03-31T08:17:46;16.77;;;6.40;;
59907;SDS011;61804;54.926;73.496;2023-03-31T08:20:14;4.10;;;1.98;;
59907;SDS011;61804;54.926;73.496;2023-03-31T08:22:41;2.05;;;1.73;;
59907;SDS011;61804;54.926;73.496;2023-03-31T08:25:09;6.28;;;3.03;;
59907;SDS011;61804;54.926;73.496;2023-03-31T08:27:37;9.43;;;3.97;;
59907;SDS011;61804;54.926;73.496;2023-03-31T08:30:06;4.75;;;1.48;;
59907;SDS011;61804;54.926;73.496;2023-03-31T08:32:34;6.22;;;1.52;;
59907;SDS011;61804;54.926;73.496;2023-03-31T08:35:04;7.45;;;1.52;;
59907;SDS011;61804;54.926;73.496;2023-03-31T08:37:31;9.18;;;2.65;;
59907;SDS011;61804;54.926;73.496;2023-03-31T08:40:00;13.85;;;3.33;;
59907;SDS011;61804;54.926;73.496;2023-03-31T08:42:34;3.53;;;2.42;;
59907;SDS011;61804;54.926;73.496;2023-03-31T08:47:30;9.57;;;2.20;;
59907;SDS011;61804;54.926;73.496;2023-03-31T08:50:10;9.20;;;3.47;;
59907;SDS011;61804;54.926;73.496;2023-03-31T08:52:40;8.93;;;5.82;;
59907;SDS011;61804;54.926;73.496;2023-03-31T08:55:12;3.50;;;1.50;;
59907;SDS011;61804;54.926;73.496;2023-03-31T09:00:14;6.47;;;4.07;;
59907;SDS011;61804;54.926;73.496;2023-03-31T09:02:43;5.53;;;2.15;;
59907;SDS011;61804;54.926;73.496;2023-03-31T09:05:21;14.02;;;2.53;;
59907;SDS011;61804;54.926;73.496;2023-03-31T09:10:54;5.45;;;4.35;;
59907;SDS011;61804;54.926;73.496;2023-03-31T09:15:54;10.93;;;3.00;;
59907;SDS011;61804;54.926;73.496;2023-03-31T09:18:33;7.22;;;3.17;;
59907;SDS011;61804;54.926;73.496;2023-03-31T09:21:11;4.80;;;2.40;;
59907;SDS011;61804;54.926;73.496;2023-03-31T09:29:11;6.40;;;2.97;;
59907;SDS011;61804;54.926;73.496;2023-03-31T09:31:41;7.30;;;2.55;;
59907;SDS011;61804;54.926;73.496;2023-03-31T09:34:14;13.50;;;2.42;;
59907;SDS011;61804;54.926;73.496;2023-03-31T09:36:42;6.20;;;2.58;;
59907;SDS011;61804;54.926;73.496;2023-03-31T09:39:13;11.05;;;3.72;;
59907;SDS011;61804;54.926;73.496;2023-03-31T09:41:44;24.63;;;7.10;;
59907;SDS011;61804;54.926;73.496;2023-03-31T09:44:22;3.63;;;2.17;;
59907;SDS011;61804;54.926;73.496;2023-03-31T09:46:55;2.50;;;1.55;;
59907;SDS011;61804;54.926;73.496;2023-03-31T09:49:25;5.07;;;2.05;;
59907;SDS011;61804;54.926;73.496;2023-03-31T09:52:12;6.05;;;2.33;;
59907;SDS011;61804;54.926;73.496;2023-03-31T09:54:52;8.00;;;1.30;;
59907;SDS011;61804;54.926;73.496;2023-03-31T09:57:25;3.35;;;1.88;;
59907;SDS011;61804;54.926;73.496;2023-03-31T09:59:53;2.22;;;0.95;;
59907;SDS011;61804;54.926;73.496;2023-03-31T10:02:38;0.93;;;0.87;;
59907;SDS011;61804;54.926;73.496;2023-03-31T10:05:34;3.97;;;0.68;;
59907;SDS011;61804;54.926;73.496;2023-03-31T10:10:50;5.82;;;2.03;;
59907;SDS011;61804;54.926;73.496;2023-03-31T10:13:20;1.80;;;1.42;;
59907;SDS011;61804;54.926;73.496;2023-03-31T10:15:51;15.82;;;6.65;;
59907;SDS011;61804;54.926;73.496;2023-03-31T10:18:18;2.30;;;1.52;;
59907;SDS011;61804;54.926;73.496;2023-03-31T10:20:50;3.13;;;2.22;;
59907;SDS011;61804;54.926;73.496;2023-03-31T10:25:48;5.53;;;2.90;;
59907;SDS011;61804;54.926;73.496;2023-03-31T10:28:21;3.05;;;2.75;;
59907;SDS011;61804;54.926;73.496;2023-03-31T10:30:56;2.55;;;1.40;;
59907;SDS011;61804;54.926;73.496;2023-03-31T10:33:31;3.75;;;1.88;;
59907;SDS011;61804;54.926;73.496;2023-03-31T10:36:06;3.28;;;1.13;;
59907;SDS011;61804;54.926;73.496;2023-03-31T10:38:38;2.58;;;1.85;;
59907;SDS011;61804;54.926;73.496;2023-03-31T10:41:09;4.45;;;2.28;;
59907;SDS011;61804;54.926;73.496;2023-03-31T10:43:41;7.97;;;2.58;;
59907;SDS011;61804;54.926;73.496;2023-03-31T10:46:09;9.13;;;2.28;;
59907;SDS011;61804;54.926;73.496;2023-03-31T10:48:39;4.78;;;2.83;;
59907;SDS011;61804;54.926;73.496;2023-03-31T10:51:17;7.88;;;3.78;;
59907;SDS011;61804;54.926;73.496;2023-03-31T10:53:51;4.45;;;1.42;;
59907;SDS011;61804;54.926;73.496;2023-03-31T10:56:32;4.32;;;2.25;;
59907;SDS011;61804;54.926;73.496;2023-03-31T11:01:42;1.83;;;1.10;;
59907;SDS011;61804;54.926;73.496;2023-03-31T11:07:03;9.52;;;4.18;;
59907;SDS011;61804;54.926;73.496;2023-03-31T11:09:48;2.20;;;1.75;;
59907;SDS011;61804;54.926;73.496;2023-03-31T11:17:26;9.73;;;3.55;;
59907;SDS011;61804;54.926;73.496;2023-03-31T11:20:00;5.00;;;3.50;;
59907;SDS011;61804;54.926;73.496;2023-03-31T11:30:37;1.45;;;1.25;;
59907;SDS011;61804;54.926;73.496;2023-03-31T11:36:03;5.57;;;2.63;;
59907;SDS011;61804;54.926;73.496;2023-03-31T11:41:19;13.35;;;4.70;;
59907;SDS011;61804;54.926;73.496;2023-03-31T11:43:54;20.98;;;4.70;;
59907;SDS011;61804;54.926;73.496;2023-03-31T11:46:27;10.32;;;2.70;;
59907;SDS011;61804;54.926;73.496;2023-03-31T11:49:02;35.22;;;6.65;;
59907;SDS011;61804;54.926;73.496;2023-03-31T11:51:37;9.18;;;2.72;;
59907;SDS011;61804;54.926;73.496;2023-03-31T11:54:15;4.38;;;1.63;;
59907;SDS011;61804;54.926;73.496;2023-03-31T11:56:43;14.20;;;3.53;;
59907;SDS011;61804;54.926;73.496;2023-03-31T11:59:13;12.35;;;3.50;;
59907;SDS011;61804;54.926;73.496;2023-03-31T12:01:56;4.38;;;2.80;;
59907;SDS011;61804;54.926;73.496;2023-03-31T12:07:02;11.38;;;3.70;;
59907;SDS011;61804;54.926;73.496;2023-03-31T12:12:15;1.80;;;1.33;;
59907;SDS011;61804;54.926;73.496;2023-03-31T12:14:49;2.67;;;1.63;;
59907;SDS011;61804;54.926;73.496;2023-03-31T12:19:59;5.03;;;1.70;;
59907;SDS011;61804;54.926;73.496;2023-03-31T12:22:34;14.93;;;4.28;;
59907;SDS011;61804;54.926;73.496;2023-03-31T12:25:04;21.77;;;8.85;;
59907;SDS011;61804;54.926;73.496;2023-03-31T12:27:36;8.30;;;5.22;;
59907;SDS011;61804;54.926;73.496;2023-03-31T12:41:30;6.90;;;3.40;;
59907;SDS011;61804;54.926;73.496;2023-03-31T12:47:06;4.00;;;3.30;;
59907;SDS011;61804;54.926;73.496;2023-03-31T12:57:48;7.93;;;3.85;;
59907;SDS011;61804;54.926;73.496;2023-03-31T13:00:20;16.67;;;8.95;;
59907;SDS011;61804;54.926;73.496;2023-03-31T13:05:49;20.73;;;10.02;;
59907;SDS011;61804;54.926;73.496;2023-03-31T13:11:03;30.13;;;16.55;;
59907;SDS011;61804;54.926;73.496;2023-03-31T13:13:39;20.05;;;14.30;;
59907;SDS011;61804;54.926;73.496;2023-03-31T13:16:16;34.60;;;18.10;;
59907;SDS011;61804;54.926;73.496;2023-03-31T13:18:49;41.30;;;23.58;;
59907;SDS011;61804;54.926;73.496;2023-03-31T13:21:25;25.48;;;12.15;;
59907;SDS011;61804;54.926;73.496;2023-03-31T13:24:05;22.48;;;11.32;;
59907;SDS011;61804;54.926;73.496;2023-03-31T13:26:46;39.88;;;23.88;;
59907;SDS011;61804;54.926;73.496;2023-03-31T13:37:29;65.60;;;39.22;;
59907;SDS011;61804;54.926;73.496;2023-03-31T13:42:57;83.60;;;50.22;;
59907;SDS011;61804;54.926;73.496;2023-03-31T13:50:56;110.60;;;76.20;;
59907;SDS011;61804;54.926;73.496;2023-03-31T13:53:49;141.07;;;102.57;;
59907;SDS011;61804;54.926;73.496;2023-03-31T13:56:44;77.97;;;52.05;;
59907;SDS011;61804;54.926;73.496;2023-03-31T14:04:29;15.02;;;11.88;;
59907;SDS011;61804;54.926;73.496;2023-03-31T14:07:17;12.23;;;8.82;;
59907;SDS011;61804;54.926;73.496;2023-03-31T14:09:51;201.90;;;104.70;;
59907;SDS011;61804;54.926;73.496;2023-03-31T14:12:21;47.10;;;25.45;;
59907;SDS011;61804;54.926;73.496;2023-03-31T14:14:59;40.97;;;24.88;;
59907;SDS011;61804;54.926;73.496;2023-03-31T14:17:38;42.88;;;25.92;;
59907;SDS011;61804;54.926;73.496;2023-03-31T14:20:17;57.90;;;39.17;;
59907;SDS011;61804;54.926;73.496;2023-03-31T14:25:39;167.52;;;120.85;;
59907;SDS011;61804;54.926;73.496;2023-03-31T14:28:25;174.52;;;114.57;;
59907;SDS011;61804;54.926;73.496;2023-03-31T14:33:39;198.23;;;124.05;;
59907;SDS011;61804;54.926;73.496;2023-03-31T14:38:54;108.18;;;68.00;;
59907;SDS011;61804;54.926;73.496;2023-03-31T14:41:27;169.52;;;96.00;;
59907;SDS011;61804;54.926;73.496;2023-03-31T14:43:59;53.13;;;39.85;;
59907;SDS011;61804;54.926;73.496;2023-03-31T14:46:29;87.72;;;52.28;;
59907;SDS011;61804;54.926;73.496;2023-03-31T14:49:05;193.55;;;120.63;;
59907;SDS011;61804;54.926;73.496;2023-03-31T14:51:33;92.65;;;58.22;;
59907;SDS011;61804;54.926;73.496;2023-03-31T14:54:01;74.38;;;47.30;;
59907;SDS011;61804;54.926;73.496;2023-03-31T14:56:30;63.85;;;42.65;;
59907;SDS011;61804;54.926;73.496;2023-03-31T14:59:05;43.08;;;29.77;;
59907;SDS011;61804;54.926;73.496;2023-03-31T15:01:34;58.08;;;44.97;;
59907;SDS011;61804;54.926;73.496;2023-03-31T15:04:07;85.65;;;60.05;;
59907;SDS011;61804;54.926;73.496;2023-03-31T15:06:39;44.35;;;30.17;;
59907;SDS011;61804;54.926;73.496;2023-03-31T15:09:09;18.63;;;16.63;;
59907;SDS011;61804;54.926;73.496;2023-03-31T15:11:39;36.72;;;30.73;;
59907;SDS011;61804;54.926;73.496;2023-03-31T15:14:07;46.45;;;33.58;;
59907;SDS011;61804;54.926;73.496;2023-03-31T15:16:45;36.30;;;25.15;;
59907;SDS011;61804;54.926;73.496;2023-03-31T15:19:20;42.85;;;35.10;;
59907;SDS011;61804;54.926;73.496;2023-03-31T15:22:00;54.10;;;42.80;;
59907;SDS011;61804;54.926;73.496;2023-03-31T15:24:28;51.97;;;39.35;;
59907;SDS011;61804;54.926;73.496;2023-03-31T15:26:56;48.88;;;31.83;;
59907;SDS011;61804;54.926;73.496;2023-03-31T15:29:26;20.08;;;13.43;;
59907;SDS011;61804;54.926;73.496;2023-03-31T15:31:55;21.95;;;14.10;;
59907;SDS011;61804;54.926;73.496;2023-03-31T15:34:32;20.05;;;14.95;;
59907;SDS011;61804;54.926;73.496;2023-03-31T15:37:02;23.50;;;18.35;;
59907;SDS011;61804;54.926;73.496;2023-03-31T15:39:32;25.83;;;17.75;;
59907;SDS011;61804;54.926;73.496;2023-03-31T15:42:03;41.10;;;24.58;;
59907;SDS011;61804;54.926;73.496;2023-03-31T15:47:21;16.25;;;9.43;;
59907;SDS011;61804;54.926;73.496;2023-03-31T15:49:53;27.80;;;17.90;;
59907;SDS011;61804;54.926;73.496;2023-03-31T15:52:36;17.15;;;11.45;;
59907;SDS011;61804;54.926;73.496;2023-03-31T15:57:56;14.38;;;10.45;;
59907;SDS011;61804;54.926;73.496;2023-03-31T16:03:12;36.42;;;28.65;;
59907;SDS011;61804;54.926;73.496;2023-03-31T16:05:52;62.85;;;48.50;;
59907;SDS011;61804;54.926;73.496;2023-03-31T16:11:11;41.05;;;31.92;;
59907;SDS011;61804;54.926;73.496;2023-03-31T16:13:39;48.50;;;37.97;;
59907;SDS011;61804;54.926;73.496;2023-03-31T16:16:09;30.08;;;24.15;;
59907;SDS011;61804;54.926;73.496;2023-03-31T16:18:39;38.15;;;30.65;;
59907;SDS011;61804;54.926;73.496;2023-03-31T16:21:10;83.18;;;55.97;;
59907;SDS011;61804;54.926;73.496;2023-03-31T16:23:48;64.15;;;52.60;;
59907;SDS011;61804;54.926;73.496;2023-03-31T16:26:23;73.78;;;55.17;;
59907;SDS011;61804;54.926;73.496;2023-03-31T16:29:06;29.48;;;21.38;;
59907;SDS011;61804;54.926;73.496;2023-03-31T16:31:38;18.55;;;16.05;;
59907;SDS011;61804;54.926;73.496;2023-03-31T16:34:11;27.90;;;21.02;;
59907;SDS011;61804;54.926;73.496;2023-03-31T16:36:38;29.02;;;22.55;;
59907;SDS011;61804;54.926;73.496;2023-03-31T16:39:16;33.97;;;20.60;;
59907;SDS011;61804;54.926;73.496;2023-03-31T16:41:43;31.58;;;21.52;;
59907;SDS011;61804;54.926;73.496;2023-03-31T16:44:11;28.48;;;21.35;;
59907;SDS011;61804;54.926;73.496;2023-03-31T16:46:39;25.63;;;17.45;;
59907;SDS011;61804;54.926;73.496;2023-03-31T16:49:07;14.52;;;10.65;;
59907;SDS011;61804;54.926;73.496;2023-03-31T16:51:34;21.52;;;12.48;;
59907;SDS011;61804;54.926;73.496;2023-03-31T16:54:15;30.95;;;21.58;;
59907;SDS011;61804;54.926;73.496;2023-03-31T16:56:53;25.10;;;18.15;;
59907;SDS011;61804;54.926;73.496;2023-03-31T16:59:20;16.67;;;10.38;;
59907;SDS011;61804;54.926;73.496;2023-03-31T17:01:54;18.42;;;10.48;;
59907;SDS011;61804;54.926;73.496;2023-03-31T17:04:22;16.23;;;11.02;;
59907;SDS011;61804;54.926;73.496;2023-03-31T17:06:54;11.35;;;7.32;;
59907;SDS011;61804;54.926;73.496;2023-03-31T17:09:23;21.58;;;13.18;;
59907;SDS011;61804;54.926;73.496;2023-03-31T17:12:01;20.00;;;14.48;;
59907;SDS011;61804;54.926;73.496;2023-03-31T17:14:29;29.88;;;17.30;;
59907;SDS011;61804;54.926;73.496;2023-03-31T17:16:57;12.65;;;7.68;;
59907;SDS011;61804;54.926;73.496;2023-03-31T17:19:29;15.40;;;12.55;;
59907;SDS011;61804;54.926;73.496;2023-03-31T17:21:57;9.35;;;7.00;;
59907;SDS011;61804;54.926;73.496;2023-03-31T17:24:27;9.02;;;5.93;;
59907;SDS011;61804;54.926;73.496;2023-03-31T17:26:54;15.90;;;13.52;;
59907;SDS011;61804;54.926;73.496;2023-03-31T17:29:33;12.45;;;7.88;;
59907;SDS011;61804;54.926;73.496;2023-03-31T17:32:00;15.15;;;7.82;;
59907;SDS011;61804;54.926;73.496;2023-03-31T17:34:28;34.53;;;30.88;;
59907;SDS011;61804;54.926;73.496;2023-03-31T17:36:55;77.70;;;58.60;;